createdAt,value
2023-02-15T00:00:32.874Z,0.12
2023-02-15T00:15:22.803Z,0.02
2023-02-15T00:30:23.809Z,-0.18
2023-02-15T00:45:22.936Z,-0.10
2023-02-15T01:00:23.327Z,-0.40
2023-02-15T01:15:23.317Z,-0.53
2023-02-15T01:30:24.051Z,-0.57
2023-02-15T01:45:23.075Z,-0.80
2023-02-15T02:00:23.268Z,-0.85
2023-02-15T02:15:23.889Z,-0.98
2023-02-15T02:30:23.987Z,-0.83
2023-02-15T02:45:24.135Z,-1.03
2023-02-15T03:00:24.160Z,-1.30
2023-02-15T03:15:24.105Z,-1.40
2023-02-15T03:30:24.318Z,-1.35
2023-02-15T03:45:23.549Z,-1.23
2023-02-15T04:00:24.238Z,-1.50
2023-02-15T04:15:24.206Z,-1.77
2023-02-15T04:30:24.530Z,-1.70
2023-02-15T04:45:33.514Z,-1.95
2023-02-15T05:00:33.575Z,-1.80
2023-02-15T05:15:23.651Z,-2.12
2023-02-15T05:30:23.911Z,-2.15
2023-02-15T05:45:23.621Z,-2.15
2023-02-15T06:00:23.647Z,-1.93
2023-02-15T06:15:23.090Z,-2.00
2023-02-15T06:30:26.308Z,-2.45
2023-02-15T06:45:23.192Z,-2.58
2023-02-15T07:00:23.781Z,-2.58
2023-02-15T07:15:23.314Z,-2.58
2023-02-15T07:30:23.328Z,-2.25
2023-02-15T07:45:23.966Z,-2.25
2023-02-15T08:00:24.033Z,-2.05
2023-02-15T08:15:23.466Z,-1.85
2023-02-15T08:30:23.596Z,-1.40
2023-02-15T08:45:24.211Z,-1.08
2023-02-15T09:00:24.520Z,-0.73
2023-02-15T09:15:23.554Z,-0.20
2023-02-15T09:30:24.592Z,0.45
2023-02-15T09:45:33.464Z,1.30
2023-02-15T10:00:33.447Z,1.27
2023-02-15T10:15:23.573Z,1.90
2023-02-15T10:30:23.565Z,2.63
2023-02-15T10:45:23.632Z,3.10
2023-02-15T11:00:24.159Z,3.87
2023-02-15T11:15:24.128Z,4.38
2023-02-15T11:30:24.461Z,5.05
2023-02-15T11:45:24.409Z,5.55
2023-02-15T12:00:33.474Z,6.20
2023-02-15T12:15:23.496Z,7.03
2023-02-15T12:30:23.536Z,7.57
2023-02-15T12:45:23.461Z,7.80
2023-02-15T13:00:23.587Z,8.38
2023-02-15T13:15:23.645Z,9.28
2023-02-15T13:30:23.777Z,9.70
2023-02-15T13:45:23.838Z,9.75
2023-02-15T14:00:23.713Z,10.05
2023-02-15T14:15:23.908Z,10.23
2023-02-15T14:30:24.124Z,10.20
2023-02-15T14:45:23.923Z,10.17
2023-02-15T15:00:24.082Z,10.35
2023-02-15T15:15:24.061Z,10.50
2023-02-15T15:30:24.099Z,10.48
2023-02-15T15:45:24.212Z,10.30
2023-02-15T16:00:24.263Z,9.75
2023-02-15T16:15:24.009Z,9.17
2023-02-15T16:30:24.359Z,8.63
2023-02-15T16:45:24.113Z,7.80
2023-02-15T17:00:33.488Z,7.12
2023-02-15T17:15:23.379Z,6.55
2023-02-15T17:30:23.462Z,6.50
2023-02-15T17:45:23.643Z,5.75
2023-02-15T18:00:23.572Z,5.40
2023-02-15T18:15:23.558Z,5.17
2023-02-15T18:30:23.882Z,4.70
2023-02-15T18:45:23.957Z,4.38
2023-02-15T19:00:23.693Z,4.22
2023-02-15T19:15:23.890Z,4.12
2023-02-15T19:34:12.729Z,6.00
2023-02-15T19:48:55.588Z,3.70
2023-02-15T20:03:55.547Z,3.50
2023-02-15T20:15:23.516Z,3.47
2023-02-15T20:30:24.038Z,3.15
2023-02-15T20:45:23.097Z,2.88
2023-02-15T21:00:23.151Z,2.77
2023-02-15T21:15:23.884Z,2.55
2023-02-15T21:30:23.559Z,2.28
2023-02-15T21:45:23.213Z,2.43
2023-02-15T22:00:23.882Z,1.98
2023-02-15T22:15:24.133Z,2.07
2023-02-15T22:30:24.295Z,1.97
2023-02-15T22:45:24.318Z,1.52
2023-02-15T23:00:40.380Z,3.00
2023-02-15T23:15:23.558Z,1.30
2023-02-15T23:30:23.741Z,1.12
2023-02-15T23:45:23.793Z,0.90
